Time;durP1;ratioP1;P1;durP2;ratioP2;P2;SDS_P1;SDS_P2;PMS_P1;PMS_P2;Temp;Humidity;BMP_temperature;BMP_pressure;BME280_temperature;BME280_humidity;BME280_pressure;Samples;Min_cycle;Max_cycle;Signal;HPM_P1;HPM_P2
2022/11/27 00:01:50;;;;;;;3.60;0.70;;;13.40;99.90;;;;;;5072920;28;20527;-57
2022/11/27 00:04:15;;;;;;;2.27;0.50;;;13.50;99.90;;;;;;5072887;28;20179;-57
2022/11/27 00:06:42;;;;;;;2.97;0.50;;;15.90;99.90;;;;;;5072782;28;20211;-57
2022/11/27 00:09:11;;;;;;;3.23;0.83;;;13.10;99.90;;;;;;5072816;28;20185;-57
2022/11/27 00:11:40;;;;;;;1.10;0.60;;;13.40;99.90;;;;;;5054902;28;20330;-57
2022/11/27 00:14:09;;;;;;;3.03;0.70;;;13.30;99.90;;;;;;5072793;28;20195;-57
2022/11/27 00:16:35;;;;;;;4.37;0.60;;;13.40;99.90;;;;;;5072729;28;20194;-57
2022/11/27 00:19:00;;;;;;;1.73;0.50;;;13.40;99.90;;;;;;5072684;28;20255;-58
2022/11/27 00:21:32;;;;;;;3.93;0.70;;;13.40;99.90;;;;;;5072485;28;20183;-57
2022/11/27 00:24:00;;;;;;;1.10;0.60;;;13.40;99.90;;;;;;5072473;28;20180;-57
2022/11/27 00:26:27;;;;;;;3.83;0.60;;;13.60;99.90;;;;;;5072478;28;20650;-57
2022/11/27 00:28:53;;;;;;;2.20;0.43;;;13.30;99.90;;;;;;5072567;28;20185;-57
2022/11/27 00:31:28;;;;;;;2.93;0.60;;;13.10;99.90;;;;;;5072393;28;20196;-57
2022/11/27 00:33:58;;;;;;;5.70;0.77;;;13.60;99.90;;;;;;5072332;28;20279;-57
2022/11/27 00:36:25;;;;;;;2.77;0.60;;;13.30;99.90;;;;;;5072218;28;20251;-57
2022/11/27 00:38:50;;;;;;;2.27;0.67;;;13.40;99.90;;;;;;5072262;28;20623;-57
2022/11/27 00:41:19;;;;;;;1.97;0.70;;;13.10;99.90;;;;;;5072116;28;20258;-57
2022/11/27 00:43:45;;;;;;;1.53;0.50;;;13.40;99.90;;;;;;5072145;28;20246;-57
2022/11/27 00:46:12;;;;;;;1.63;0.80;;;13.20;99.90;;;;;;5072056;28;20172;-57
2022/11/27 00:48:38;;;;;;;2.57;0.80;;;13.30;99.90;;;;;;5071941;28;20208;-57
2022/11/27 00:51:06;;;;;;;4.50;0.60;;;14.10;99.90;;;;;;5072127;28;20505;-57
2022/11/27 00:53:32;;;;;;;2.27;0.50;;;13.70;99.90;;;;;;5071980;28;20176;-57
2022/11/27 00:55:58;;;;;;;3.60;1.03;;;13.70;99.90;;;;;;5071841;28;20169;-57
2022/11/27 00:58:25;;;;;;;5.07;0.80;;;13.40;99.90;;;;;;5071864;28;20164;-57
2022/11/27 01:01:04;;;;;;;1.90;0.60;;;13.50;99.90;;;;;;5071772;28;20210;-57
2022/11/27 01:03:30;;;;;;;3.23;0.63;;;13.40;99.90;;;;;;5071779;28;20647;-57
2022/11/27 01:05:56;;;;;;;4.70;0.70;;;13.50;99.90;;;;;;5071573;28;20641;-58
2022/11/27 01:08:22;;;;;;;1.00;0.57;;;13.40;99.90;;;;;;5071553;28;20306;-57
2022/11/27 01:10:52;;;;;;;4.50;0.90;;;13.40;99.90;;;;;;5071696;28;20259;-57
2022/11/27 01:13:18;;;;;;;2.20;1.00;;;13.40;99.90;;;;;;5071447;28;20199;-57
2022/11/27 01:15:44;;;;;;;4.00;0.70;;;13.60;99.90;;;;;;5071470;28;20180;-57
2022/11/27 01:18:11;;;;;;;4.43;0.70;;;12.20;99.90;;;;;;5071434;28;20173;-57
2022/11/27 01:20:38;;;;;;;4.60;0.70;;;13.40;99.90;;;;;;5071722;28;20256;-57
2022/11/27 01:23:05;;;;;;;2.70;0.70;;;13.20;99.90;;;;;;5071614;28;20182;-57
2022/11/27 01:25:30;;;;;;;5.27;0.90;;;13.60;99.90;;;;;;5071401;28;20251;-57
2022/11/27 01:27:56;;;;;;;6.20;1.13;;;13.20;99.90;;;;;;5073280;28;20294;-58
2022/11/27 01:30:21;;;;;;;4.17;0.80;;;13.20;99.90;;;;;;5071808;28;20180;-58
2022/11/27 01:32:47;;;;;;;5.03;1.30;;;13.00;99.90;;;;;;5071430;28;20181;-57
2022/11/27 01:35:12;;;;;;;6.00;0.70;;;13.30;99.90;;;;;;5070834;28;20172;-58
2022/11/27 01:37:38;;;;;;;7.23;1.10;;;13.30;99.90;;;;;;5071188;28;20169;-57
2022/11/27 01:40:04;;;;;;;5.37;1.10;;;13.20;99.90;;;;;;5071102;28;20184;-57
2022/11/27 01:42:30;;;;;;;7.70;0.90;;;13.50;99.90;;;;;;5070981;28;20216;-57
2022/11/27 01:44:56;;;;;;;6.17;0.60;;;;;;;;;;5071131;28;20179;-57
2022/11/27 01:47:31;;;;;;;8.70;1.30;;;13.30;99.90;;;;;;5071169;28;20208;-57
2022/11/27 01:50:05;;;;;;;10.40;1.63;;;13.30;99.90;;;;;;5071136;28;20180;-58
2022/11/27 01:52:35;;;;;;;7.33;1.40;;;13.30;99.90;;;;;;5070928;28;20595;-57
2022/11/27 01:55:12;;;;;;;8.43;1.67;;;13.20;99.90;;;;;;5071081;28;20707;-57
2022/11/27 01:57:52;;;;;;;9.77;1.00;;;13.20;99.90;;;;;;5071456;28;20173;-57
2022/11/27 02:00:20;;;;;;;10.57;1.60;;;13.20;99.90;;;;;;5071080;28;20180;-57
2022/11/27 02:02:46;;;;;;;11.20;1.47;;;13.20;99.90;;;;;;5070976;28;20169;-57
2022/11/27 02:05:16;;;;;;;8.87;1.60;;;13.20;99.90;;;;;;5070891;28;20183;-58
2022/11/27 02:07:42;;;;;;;10.40;1.40;;;13.20;99.90;;;;;;5070809;28;20261;-57
2022/11/27 02:10:08;;;;;;;8.63;1.33;;;13.90;99.90;;;;;;5070900;28;20586;-57
2022/11/27 02:12:53;;;;;;;11.43;1.40;;;13.20;99.90;;;;;;5070934;28;20172;-57
2022/11/27 02:15:23;;;;;;;7.93;1.40;;;13.10;99.90;;;;;;5070845;28;20534;-57
2022/11/27 02:18:00;;;;;;;9.40;1.53;;;13.20;99.90;;;;;;5070921;28;20168;-57
2022/11/27 02:20:48;;;;;;;15.57;1.90;;;13.20;99.90;;;;;;5070745;28;20164;-57
2022/11/27 02:23:44;;;;;;;10.10;1.43;;;13.10;99.90;;;;;;5070907;28;20172;-57
2022/11/27 02:26:46;;;;;;;9.73;1.47;;;13.10;99.90;;;;;;5070733;28;20226;-57
2022/11/27 02:29:14;;;;;;;7.57;1.30;;;13.00;99.90;;;;;;5070669;28;20180;-57
2022/11/27 02:31:43;;;;;;;12.40;1.50;;;13.00;99.90;;;;;;5070679;28;20635;-56
2022/11/27 02:34:11;;;;;;;11.17;1.67;;;13.10;99.90;;;;;;5070529;28;20192;-56
2022/11/27 02:36:42;;;;;;;7.50;1.40;;;12.70;99.90;;;;;;5070312;28;20595;-56
2022/11/27 02:39:13;;;;;;;8.00;1.40;;;13.00;99.90;;;;;;5070519;28;20173;-56
2022/11/27 02:42:04;;;;;;;11.83;1.70;;;13.00;99.90;;;;;;5070325;28;20230;-56
2022/11/27 02:44:34;;;;;;;14.97;1.43;;;13.00;99.90;;;;;;5070461;28;20207;-57
2022/11/27 02:47:01;;;;;;;11.83;1.77;;;13.00;99.90;;;;;;5071656;28;20200;-57
2022/11/27 02:49:27;;;;;;;18.13;2.20;;;13.00;99.90;;;;;;5074087;28;20195;-56
2022/11/27 02:51:56;;;;;;;13.50;2.00;;;13.00;99.90;;;;;;5074114;28;20188;-57
2022/11/27 02:54:27;;;;;;;9.53;1.40;;;13.00;99.90;;;;;;5074094;28;20574;-57
2022/11/27 02:56:54;;;;;;;9.13;1.93;;;13.10;99.90;;;;;;5074025;28;20172;-56
2022/11/27 02:59:23;;;;;;;12.70;1.63;;;13.10;99.90;;;;;;5074080;28;20200;-57
2022/11/27 03:01:53;;;;;;;11.23;1.67;;;13.10;99.90;;;;;;5073933;28;20169;-57
2022/11/27 03:04:25;;;;;;;14.33;2.30;;;13.10;99.90;;;;;;5073847;28;20177;-57
2022/11/27 03:06:54;;;;;;;14.60;1.93;;;13.10;99.90;;;;;;5073881;28;20184;-57
2022/11/27 03:09:37;;;;;;;14.97;2.07;;;13.00;99.90;;;;;;5073962;28;20191;-57
2022/11/27 03:12:05;;;;;;;17.53;2.20;;;13.10;99.90;;;;;;5074274;28;20198;-57
2022/11/27 03:14:33;;;;;;;13.90;2.13;;;14.10;99.90;;;;;;5074030;28;20188;-57
2022/11/27 03:17:07;;;;;;;16.97;2.60;;;13.10;99.90;;;;;;5074095;28;20181;-57
2022/11/27 03:19:47;;;;;;;23.87;2.33;;;13.10;99.90;;;;;;5074030;28;20701;-57
2022/11/27 03:22:13;;;;;;;18.43;2.70;;;13.10;99.90;;;;;;5074200;28;20194;-57
2022/11/27 03:24:39;;;;;;;20.33;3.00;;;13.10;99.90;;;;;;5073890;28;20658;-56
2022/11/27 03:27:05;;;;;;;15.50;2.60;;;13.10;99.90;;;;;;5073404;28;20204;-57
2022/11/27 03:29:58;;;;;;;21.50;2.90;;;13.10;99.90;;;;;;5076269;28;20181;-56
2022/11/27 03:32:26;;;;;;;22.87;3.00;;;13.10;99.90;;;;;;5070150;28;20253;-57
2022/11/27 03:34:52;;;;;;;23.33;3.33;;;13.00;99.90;;;;;;5073402;28;20199;-57
2022/11/27 03:37:18;;;;;;;27.53;4.17;;;;;;;;;;5073314;28;20632;-57
2022/11/27 03:39:44;;;;;;;21.17;3.30;;;13.10;99.90;;;;;;5073366;28;20803;-56
2022/11/27 03:42:16;;;;;;;30.67;4.20;;;13.10;99.90;;;;;;5073126;28;20307;-57
2022/11/27 03:45:11;;;;;;;19.60;3.00;;;13.10;99.90;;;;;;5073254;28;20160;-57
2022/11/27 03:48:13;;;;;;;23.10;3.37;;;13.10;99.90;;;;;;5071810;28;20215;-56
2022/11/27 03:51:00;;;;;;;22.57;3.20;;;13.10;99.90;;;;;;5073214;28;20180;-57
2022/11/27 03:53:34;;;;;;;17.83;2.70;;;13.10;99.90;;;;;;5073132;28;20639;-57
2022/11/27 03:56:10;;;;;;;32.80;3.53;;;13.10;99.90;;;;;;5072977;28;20184;-57
2022/11/27 03:58:41;;;;;;;31.17;3.93;;;13.10;99.90;;;;;;5072301;28;20190;-57
2022/11/27 04:01:11;;;;;;;19.17;2.70;;;13.00;99.90;;;;;;5073146;28;20157;-56
2022/11/27 04:03:37;;;;;;;23.93;3.30;;;13.00;99.90;;;;;;5072824;28;20178;-57
2022/11/27 04:06:03;;;;;;;24.97;3.37;;;12.90;99.90;;;;;;5072754;28;20173;-57
2022/11/27 04:08:29;;;;;;;32.30;3.57;;;12.90;99.90;;;;;;5072632;28;20212;-57
2022/11/27 04:10:55;;;;;;;32.63;3.90;;;;;;;;;;5072696;28;20225;-57
2022/11/27 04:13:20;;;;;;;30.33;3.37;;;12.90;99.90;;;;;;5072712;28;20619;-57
2022/11/27 04:15:46;;;;;;;22.77;3.27;;;12.90;99.90;;;;;;5072655;28;20173;-57
2022/11/27 04:18:12;;;;;;;29.53;4.03;;;13.00;99.90;;;;;;5072613;28;20180;-56
2022/11/27 04:20:37;;;;;;;22.57;3.90;;;12.90;99.90;;;;;;5072464;28;20716;-57
2022/11/27 04:23:03;;;;;;;28.83;3.93;;;12.80;99.90;;;;;;5072417;28;20275;-57
2022/11/27 04:25:29;;;;;;;28.07;3.10;;;12.90;99.90;;;;;;5072360;28;20200;-57
2022/11/27 04:27:54;;;;;;;30.17;3.97;;;12.90;99.90;;;;;;5072336;28;20683;-57
2022/11/27 04:30:21;;;;;;;37.17;4.80;;;12.90;99.90;;;;;;5072336;28;20619;-57
2022/11/27 04:32:46;;;;;;;34.47;3.90;;;12.80;99.90;;;;;;5072310;28;20698;-56
2022/11/27 04:35:12;;;;;;;32.03;4.10;;;12.80;99.90;;;;;;5072255;28;20264;-56
2022/11/27 04:37:38;;;;;;;31.17;3.13;;;;;;;;;;5072113;28;20184;-56
2022/11/27 04:40:04;;;;;;;30.13;4.83;;;12.80;99.90;;;;;;5072120;28;20659;-56
2022/11/27 04:42:30;;;;;;;34.33;4.57;;;12.80;99.90;;;;;;5071751;28;20238;-56
2022/11/27 04:44:56;;;;;;;34.07;3.97;;;12.50;99.90;;;;;;5071859;28;20180;-56
2022/11/27 04:47:21;;;;;;;43.77;5.00;;;12.70;99.90;;;;;;5071875;28;20192;-56
2022/11/27 04:49:47;;;;;;;36.77;3.80;;;12.80;99.90;;;;;;5071891;28;20176;-56
2022/11/27 04:52:13;;;;;;;45.30;4.40;;;13.10;99.90;;;;;;5071813;28;20221;-56
2022/11/27 04:54:39;;;;;;;28.97;3.63;;;12.80;99.90;;;;;;5071848;28;20747;-56
2022/11/27 04:57:04;;;;;;;37.27;4.53;;;12.40;99.90;;;;;;5071713;28;20184;-56
2022/11/27 04:59:30;;;;;;;32.03;3.83;;;12.70;99.90;;;;;;5071666;28;20248;-56
2022/11/27 05:01:56;;;;;;;30.60;4.03;;;12.40;99.90;;;;;;5071632;28;20267;-56
2022/11/27 05:04:22;;;;;;;30.97;4.03;;;12.70;99.90;;;;;;5071711;28;20239;-56
2022/11/27 05:06:48;;;;;;;39.77;3.90;;;12.60;99.90;;;;;;5071361;28;20179;-56
2022/11/27 05:09:15;;;;;;;42.20;4.63;;;12.60;99.90;;;;;;5071527;28;20161;-56
2022/11/27 05:11:41;;;;;;;36.43;4.60;;;10.70;99.90;;;;;;5070733;28;20196;-57
2022/11/27 05:14:16;;;;;;;35.63;4.40;;;12.60;99.90;;;;;;5071542;28;20227;-57
2022/11/27 05:16:51;;;;;;;44.43;4.87;;;12.70;99.90;;;;;;5071376;28;20188;-57
2022/11/27 05:19:18;;;;;;;40.67;4.67;;;12.60;99.90;;;;;;5071375;28;20187;-57
2022/11/27 05:21:45;;;;;;;50.00;6.40;;;12.50;99.90;;;;;;5071265;28;20612;-57
2022/11/27 05:24:12;;;;;;;37.23;5.07;;;12.50;99.90;;;;;;5071571;28;20168;-57
2022/11/27 05:26:38;;;;;;;41.43;5.03;;;12.50;99.90;;;;;;5071413;28;20171;-57
2022/11/27 05:29:04;;;;;;;32.03;4.43;;;12.30;99.90;;;;;;5071111;28;20208;-57
2022/11/27 05:31:30;;;;;;;41.43;5.10;;;12.20;99.90;;;;;;5074590;28;20242;-57
2022/11/27 05:33:56;;;;;;;40.87;5.67;;;;;;;;;;5071083;28;20185;-56
2022/11/27 05:36:22;;;;;;;42.03;5.87;;;12.50;99.90;;;;;;5071060;28;20252;-56
2022/11/27 05:38:47;;;;;;;54.77;5.93;;;12.30;99.90;;;;;;5071039;28;20169;-56
2022/11/27 05:41:13;;;;;;;41.87;5.40;;;12.30;99.90;;;;;;5071021;28;20269;-56
2022/11/27 05:43:39;;;;;;;34.27;5.20;;;12.60;99.90;;;;;;5070989;28;20168;-56
2022/11/27 05:46:09;;;;;;;53.83;5.37;;;12.30;99.90;;;;;;5071016;28;20265;-56
2022/11/27 05:48:35;;;;;;;53.73;6.40;;;12.20;99.90;;;;;;5070779;28;20510;-57
2022/11/27 05:51:02;;;;;;;39.57;5.60;;;12.00;99.90;;;;;;5071060;28;20177;-56
2022/11/27 05:53:28;;;;;;;42.20;6.03;;;12.10;99.90;;;;;;5070833;28;20267;-56
2022/11/27 05:55:59;;;;;;;59.77;6.43;;;12.00;99.90;;;;;;5070886;28;20200;-57
2022/11/27 05:58:24;;;;;;;46.90;6.43;;;11.90;99.90;;;;;;5070910;28;20259;-57
2022/11/27 06:00:50;;;;;;;50.13;6.30;;;;;;;;;;5070716;28;20583;-56
2022/11/27 06:03:16;;;;;;;57.27;7.10;;;12.30;99.90;;;;;;5070861;28;20176;-57
2022/11/27 06:05:41;;;;;;;48.47;6.03;;;11.90;99.90;;;;;;5071123;28;20183;-57
2022/11/27 06:08:07;;;;;;;55.07;7.00;;;12.20;99.90;;;;;;5070730;28;20709;-57
2022/11/27 06:10:33;;;;;;;61.47;7.20;;;12.00;99.90;;;;;;5052833;28;20180;-57
2022/11/27 06:12:58;;;;;;;67.47;7.70;;;11.80;99.90;;;;;;5070830;28;20656;-57
2022/11/27 06:15:24;;;;;;;57.17;7.00;;;;;;;;;;5070857;28;20622;-57
2022/11/27 06:17:50;;;;;;;54.00;6.63;;;;;;;;;;5070656;28;20173;-57
2022/11/27 06:20:16;;;;;;;59.03;6.90;;;12.00;99.90;;;;;;5052737;28;20538;-57
2022/11/27 06:22:42;;;;;;;54.07;6.53;;;11.90;99.90;;;;;;5073444;28;20226;-57
2022/11/27 06:25:08;;;;;;;66.30;8.30;;;11.80;99.90;;;;;;5074749;28;20650;-57
2022/11/27 06:27:35;;;;;;;53.23;6.47;;;11.80;99.90;;;;;;5074656;28;20223;-57
2022/11/27 06:30:01;;;;;;;48.90;6.67;;;;;;;;;;5074755;28;20168;-57
2022/11/27 06:32:26;;;;;;;41.00;5.30;;;11.90;99.90;;;;;;5056563;28;20533;-57
2022/11/27 06:34:52;;;;;;;41.80;5.57;;;11.70;99.90;;;;;;5074841;28;20183;-57
2022/11/27 06:37:18;;;;;;;43.90;5.67;;;11.70;99.90;;;;;;5074540;28;20639;-57
2022/11/27 06:39:44;;;;;;;47.47;6.43;;;;;;;;;;5074661;28;20180;-57
2022/11/27 06:42:10;;;;;;;58.73;6.53;;;;;;;;;;5074379;28;20223;-57
2022/11/27 06:44:36;;;;;;;50.77;6.67;;;11.70;99.90;;;;;;5074332;28;20623;-57
2022/11/27 06:47:02;;;;;;;49.87;6.47;;;;;;;;;;5074369;28;20180;-57
2022/11/27 06:49:27;;;;;;;53.03;5.37;;;11.50;99.90;;;;;;5074359;28;20242;-57
2022/11/27 06:51:53;;;;;;;58.87;6.63;;;;;;;;;;5074285;28;20167;-57
2022/11/27 06:54:19;;;;;;;57.50;6.83;;;11.40;99.90;;;;;;5074286;28;20684;-57
2022/11/27 06:56:44;;;;;;;56.13;6.73;;;11.70;99.90;;;;;;5074240;28;20169;-57
2022/11/27 06:59:13;;;;;;;52.70;6.07;;;11.30;99.90;;;;;;5074117;28;20176;-57
2022/11/27 07:01:40;;;;;;;57.70;6.00;;;;;;;;;;5074535;28;20211;-57
2022/11/27 07:04:06;;;;;;;63.27;6.33;;;;;;;;;;5074308;28;20172;-57
2022/11/27 07:06:32;;;;;;;54.83;6.60;;;;;;;;;;5074130;28;20172;-57
2022/11/27 07:08:58;;;;;;;57.53;7.13;;;11.40;99.90;;;;;;5073979;28;20655;-58
2022/11/27 07:11:28;;;;;;;63.03;7.13;;;11.30;99.90;;;;;;5074045;28;20384;-57
2022/11/27 07:13:56;;;;;;;60.90;7.33;;;11.20;99.90;;;;;;5073877;28;20223;-57
2022/11/27 07:16:22;;;;;;;44.27;5.73;;;11.30;99.90;;;;;;5073760;28;20173;-57
2022/11/27 07:18:53;;;;;;;69.37;6.63;;;11.10;99.90;;;;;;5073775;28;20205;-57
2022/11/27 07:21:19;;;;;;;52.03;6.03;;;11.00;99.90;;;;;;5073684;28;20177;-57
2022/11/27 07:23:45;;;;;;;70.13;7.10;;;11.20;99.90;;;;;;5073784;28;20230;-57
2022/11/27 07:26:21;;;;;;;62.70;6.80;;;11.20;99.90;;;;;;5073677;28;20168;-57
2022/11/27 07:28:47;;;;;;;54.87;6.40;;;11.80;99.90;;;;;;5073405;28;20211;-55
2022/11/27 07:31:16;;;;;;;82.60;7.30;;;11.00;99.90;;;;;;5076011;28;20255;-57
2022/11/27 07:33:41;;;;;;;64.17;7.03;;;11.00;99.90;;;;;;5072409;28;20706;-56
2022/11/27 07:36:12;;;;;;;56.17;6.57;;;11.00;99.90;;;;;;5073465;28;20255;-56
2022/11/27 07:38:38;;;;;;;65.63;6.70;;;11.20;99.90;;;;;;5073423;28;20206;-56
2022/11/27 07:41:04;;;;;;;68.63;10.20;;;11.10;99.90;;;;;;5073071;28;20298;-57
2022/11/27 07:43:32;;;;;;;77.17;9.90;;;11.00;99.90;;;;;;5073340;28;20199;-56
2022/11/27 07:45:58;;;;;;;58.57;6.83;;;10.90;99.90;;;;;;5073420;28;20165;-56
2022/11/27 07:48:24;;;;;;;86.33;7.37;;;11.10;99.90;;;;;;5073169;28;20713;-56
2022/11/27 07:50:49;;;;;;;52.80;6.10;;;11.00;99.90;;;;;;5073087;28;20168;-56
2022/11/27 07:53:15;;;;;;;50.37;6.13;;;11.10;99.90;;;;;;5072950;28;20180;-56
2022/11/27 07:55:41;;;;;;;57.40;5.97;;;11.10;99.90;;;;;;5072891;28;20251;-56
2022/11/27 07:58:07;;;;;;;73.90;8.03;;;11.20;99.90;;;;;;5073211;28;20251;-57
2022/11/27 08:00:34;;;;;;;66.13;7.07;;;10.80;99.90;;;;;;5073083;28;20165;-57
2022/11/27 08:03:00;;;;;;;64.53;6.87;;;10.70;99.90;;;;;;5072938;28;20177;-57
2022/11/27 08:05:26;;;;;;;66.93;6.73;;;10.90;99.90;;;;;;5072857;28;20169;-57
2022/11/27 08:07:51;;;;;;;63.13;6.50;;;10.90;99.90;;;;;;5072770;28;20196;-57
2022/11/27 08:10:17;;;;;;;45.90;6.80;;;;;;;;;;5072777;28;20169;-57
2022/11/27 08:12:43;;;;;;;65.23;6.97;;;10.80;99.90;;;;;;5072771;28;20161;-57
2022/11/27 08:15:09;;;;;;;73.17;6.90;;;10.90;99.90;;;;;;5072530;28;20172;-57
2022/11/27 08:17:35;;;;;;;63.10;6.23;;;10.80;99.90;;;;;;5072856;28;20176;-57
2022/11/27 08:20:01;;;;;;;59.97;6.57;;;;;;;;;;5072629;28;20192;-57
2022/11/27 08:22:27;;;;;;;70.13;6.97;;;10.80;99.90;;;;;;5072547;28;20180;-57
2022/11/27 08:24:53;;;;;;;61.90;6.17;;;11.10;99.90;;;;;;5072565;28;20173;-57
2022/11/27 08:27:18;;;;;;;58.50;6.30;;;10.90;99.90;;;;;;5072387;28;20192;-57
2022/11/27 08:29:44;;;;;;;74.83;7.07;;;;;;;;;;5072451;28;20623;-57
2022/11/27 08:32:10;;;;;;;55.10;6.37;;;11.00;99.90;;;;;;5072415;28;20172;-57
2022/11/27 08:34:36;;;;;;;71.27;7.37;;;;;;;;;;5072419;28;20176;-58
2022/11/27 08:37:04;;;;;;;74.30;7.30;;;11.20;99.90;;;;;;5072274;28;20169;-56
2022/11/27 08:39:29;;;;;;;64.83;7.20;;;11.00;99.90;;;;;;5072215;28;20897;-57
2022/11/27 08:41:55;;;;;;;57.90;6.57;;;;;;;;;;5072058;28;20749;-56
2022/11/27 08:44:21;;;;;;;88.97;8.00;;;11.10;99.90;;;;;;5071898;28;20169;-56
2022/11/27 08:46:47;;;;;;;74.50;7.57;;;;;;;;;;5072024;28;20204;-56
2022/11/27 08:49:13;;;;;;;66.70;7.03;;;11.20;99.90;;;;;;5071977;28;20686;-57
2022/11/27 08:51:38;;;;;;;75.67;6.83;;;11.20;99.90;;;;;;5071960;28;20204;-56
2022/11/27 08:54:05;;;;;;;53.20;6.20;;;11.20;99.90;;;;;;5071773;28;20674;-56
2022/11/27 08:56:31;;;;;;;57.63;6.90;;;;;;;;;;5071771;28;20222;-56
2022/11/27 08:58:57;;;;;;;45.27;6.33;;;;;;;;;;5071810;28;20184;-56
2022/11/27 09:01:28;;;;;;;49.53;6.40;;;11.30;99.90;;;;;;5071901;28;20184;-56
2022/11/27 09:03:55;;;;;;;60.20;6.83;;;11.20;99.90;;;;;;5071636;28;20212;-57
2022/11/27 09:06:23;;;;;;;65.47;7.23;;;11.10;99.90;;;;;;5071639;28;20196;-56
2022/11/27 09:08:49;;;;;;;56.87;6.70;;;11.40;99.90;;;;;;5071379;28;20208;-56
2022/11/27 09:11:17;;;;;;;62.53;6.63;;;11.40;99.90;;;;;;5071567;28;20172;-57
2022/11/27 09:13:42;;;;;;;56.23;7.13;;;11.50;99.90;;;;;;5071530;28;20168;-56
2022/11/27 09:16:10;;;;;;;61.63;8.17;;;11.40;99.90;;;;;;5071477;28;20477;-56
2022/11/27 09:18:36;;;;;;;58.93;7.07;;;11.60;99.90;;;;;;5071541;28;20196;-57
2022/11/27 09:21:05;;;;;;;63.63;7.37;;;11.50;99.90;;;;;;5071329;28;20176;-56
2022/11/27 09:23:31;;;;;;;41.87;5.83;;;11.70;99.90;;;;;;5071301;28;20184;-57
2022/11/27 09:26:05;;;;;;;56.20;6.57;;;11.50;99.90;;;;;;5071465;28;20172;-57
2022/11/27 09:28:32;;;;;;;47.27;7.43;;;11.80;99.90;;;;;;5071412;28;20219;-57
2022/11/27 09:30:59;;;;;;;51.10;6.77;;;11.60;99.90;;;;;;5070432;28;20172;-58
2022/11/27 09:33:27;;;;;;;44.83;5.90;;;11.80;99.90;;;;;;5074206;28;20184;-57
2022/11/27 09:35:53;;;;;;;46.77;6.07;;;;;;;;;;5071149;28;20512;-56
2022/11/27 09:38:20;;;;;;;54.03;7.30;;;;;;;;;;5071260;28;20294;-57
2022/11/27 09:40:51;;;;;;;59.87;6.73;;;11.80;99.90;;;;;;5071141;28;20168;-57
2022/11/27 09:43:23;;;;;;;60.67;7.57;;;11.80;99.90;;;;;;5071106;28;20188;-57
2022/11/27 09:45:54;;;;;;;53.57;6.80;;;12.00;99.90;;;;;;5071137;28;20572;-56
2022/11/27 09:48:33;;;;;;;42.20;6.53;;;12.10;99.90;;;;;;5070920;28;20227;-56
2022/11/27 09:51:03;;;;;;;52.13;6.20;;;12.20;99.90;;;;;;5071145;28;20169;-57
2022/11/27 09:53:44;;;;;;;48.83;7.17;;;12.30;99.90;;;;;;5071078;28;20631;-56
2022/11/27 09:56:14;;;;;;;58.60;7.23;;;12.60;99.90;;;;;;5052285;28;20179;-57
2022/11/27 09:58:42;;;;;;;56.50;7.17;;;12.50;99.90;;;;;;5070939;28;20260;-56
2022/11/27 10:01:16;;;;;;;43.90;6.37;;;12.20;99.90;;;;;;5070985;28;20516;-57
2022/11/27 10:03:43;;;;;;;52.70;6.77;;;12.40;99.90;;;;;;5071099;28;20188;-57
2022/11/27 10:06:47;;;;;;;51.27;7.33;;;12.40;99.90;;;;;;5070928;28;20196;-57
2022/11/27 10:09:50;;;;;;;43.70;6.67;;;12.60;99.90;;;;;;5003534;28;20247;-57
2022/11/27 10:12:29;;;;;;;41.37;5.67;;;12.70;99.90;;;;;;5070779;28;20176;-57
2022/11/27 10:15:11;;;;;;;55.13;6.67;;;12.90;99.90;;;;;;5070700;28;20263;-57
2022/11/27 10:17:54;;;;;;;45.53;6.93;;;13.00;99.90;;;;;;5070822;28;20263;-57
2022/11/27 10:20:27;;;;;;;44.23;6.33;;;12.90;99.90;;;;;;5070761;28;20259;-56
2022/11/27 10:23:07;;;;;;;51.20;6.30;;;12.40;99.90;;;;;;5070771;28;20624;-57
2022/11/27 10:25:33;;;;;;;41.13;5.93;;;;;;;;;;5070599;28;20188;-57
2022/11/27 10:28:05;;;;;;;50.90;6.00;;;12.80;99.90;;;;;;5070792;28;20238;-56
2022/11/27 10:30:35;;;;;;;47.80;6.87;;;12.90;99.90;;;;;;5070602;28;20574;-57
2022/11/27 10:33:02;;;;;;;38.57;6.20;;;13.10;99.90;;;;;;5070619;28;20190;-56
2022/11/27 10:35:30;;;;;;;52.40;6.23;;;13.10;99.90;;;;;;5070538;28;20252;-56
2022/11/27 10:37:58;;;;;;;52.07;5.97;;;13.30;99.90;;;;;;5070457;28;20184;-56
2022/11/27 10:40:41;;;;;;;48.97;6.97;;;13.40;99.90;;;;;;5070448;28;20161;-57
2022/11/27 10:43:17;;;;;;;46.03;6.70;;;13.40;99.90;;;;;;5050469;28;20573;-56
2022/11/27 10:45:56;;;;;;;42.63;6.75;;;13.30;99.90;;;;;;5050295;28;20205;-56
2022/11/27 10:48:23;;;;;;;49.17;6.63;;;13.20;99.90;;;;;;5050172;28;20243;-57
2022/11/27 10:50:49;;;;;;;46.90;7.22;;;13.60;99.90;;;;;;5050209;28;20781;-57
2022/11/27 10:53:25;;;;;;;49.65;7.80;;;13.40;99.90;;;;;;5050304;28;20212;-57
2022/11/27 10:55:57;;;;;;;51.47;7.55;;;13.10;99.90;;;;;;5050194;28;20680;-57
2022/11/27 10:58:35;;;;;;;48.27;7.57;;;13.20;99.90;;;;;;5050147;28;20184;-57
2022/11/27 11:01:08;;;;;;;59.78;7.53;;;13.50;99.90;;;;;;5050015;28;20211;-58
2022/11/27 11:03:34;;;;;;;46.37;7.50;;;13.40;99.90;;;;;;5050111;28;20234;-56
2022/11/27 11:06:21;;;;;;;53.83;6.85;;;13.50;99.90;;;;;;5049998;28;20173;-56
2022/11/27 11:08:47;;;;;;;50.78;7.18;;;14.20;99.90;;;;;;5052473;28;20232;-56
2022/11/27 11:11:23;;;;;;;51.63;7.07;;;14.10;99.90;;;;;;5053646;28;20170;-56
2022/11/27 11:13:49;;;;;;;44.15;6.78;;;14.20;99.90;;;;;;5053675;28;20172;-56
2022/11/27 11:16:21;;;;;;;42.60;6.85;;;16.80;99.90;;;;;;5053816;28;20169;-56
2022/11/27 11:18:52;;;;;;;44.97;6.28;;;14.50;99.90;;;;;;5053734;28;20256;-56
2022/11/27 11:21:33;;;;;;;39.80;6.50;;;14.10;99.90;;;;;;5053491;28;20679;-56
2022/11/27 11:24:28;;;;;;;46.70;6.85;;;14.00;99.90;;;;;;5053410;28;20177;-56
2022/11/27 11:27:03;;;;;;;51.75;6.50;;;14.10;99.90;;;;;;5053438;28;20764;-56
2022/11/27 11:29:40;;;;;;;41.37;6.70;;;13.60;99.90;;;;;;5053452;28;20711;-56
2022/11/27 11:32:22;;;;;;;48.42;6.85;;;13.50;99.90;;;;;;5055185;28;20179;-56
2022/11/27 11:34:52;;;;;;;40.03;5.65;;;13.40;99.90;;;;;;5053513;28;20181;-56
2022/11/27 11:37:21;;;;;;;49.43;6.47;;;13.50;99.90;;;;;;5053562;28;20200;-56
2022/11/27 11:39:54;;;;;;;57.53;6.70;;;13.60;99.90;;;;;;5053293;28;20256;-56
2022/11/27 11:42:23;;;;;;;48.83;6.63;;;13.60;99.90;;;;;;5066648;28;20629;-57
2022/11/27 11:44:54;;;;;;;52.73;6.90;;;14.10;99.90;;;;;;5072949;28;20198;-56
2022/11/27 11:47:24;;;;;;;48.80;7.10;;;13.70;99.90;;;;;;5073009;28;20250;-56
2022/11/27 11:49:52;;;;;;;38.77;6.67;;;13.70;99.90;;;;;;5072959;28;20226;-57
2022/11/27 11:52:57;;;;;;;52.90;7.60;;;13.80;99.90;;;;;;5072974;28;20272;-56
2022/11/27 11:55:42;;;;;;;42.00;7.28;;;13.50;99.90;;;;;;5073003;28;20172;-57
2022/11/27 11:58:48;;;;;;;51.33;7.20;;;13.70;99.90;;;;;;5072807;28;20169;-56
2022/11/27 12:01:44;;;;;;;57.78;7.57;;;13.90;99.90;;;;;;5054872;28;20180;-56
2022/11/27 12:04:40;;;;;;;48.95;7.45;;;13.80;99.90;;;;;;5072739;28;20227;-56
2022/11/27 12:07:24;;;;;;;51.07;7.77;;;13.70;99.90;;;;;;5072531;28;20173;-56
2022/11/27 12:10:15;;;;;;;53.15;7.88;;;13.80;99.90;;;;;;5072450;28;20187;-57
2022/11/27 12:13:06;;;;;;;53.58;7.55;;;13.90;99.90;;;;;;5072534;28;20176;-56
2022/11/27 12:15:38;;;;;;;41.15;6.85;;;13.80;99.90;;;;;;5072403;28;20268;-56
2022/11/27 12:18:24;;;;;;;54.47;8.95;;;13.80;99.90;;;;;;5072335;28;20264;-56
2022/11/27 12:21:11;;;;;;;48.23;6.80;;;13.80;99.90;;;;;;5071841;28;20180;-56
2022/11/27 12:23:51;;;;;;;51.40;6.90;;;13.90;99.90;;;;;;5072262;28;20207;-57
2022/11/27 12:26:22;;;;;;;49.90;6.85;;;14.00;99.90;;;;;;5072177;28;20167;-56
2022/11/27 12:28:56;;;;;;;59.00;7.47;;;14.00;99.90;;;;;;5072048;28;20307;-57
2022/11/27 12:31:39;;;;;;;54.10;7.32;;;14.10;99.90;;;;;;5072121;28;20165;-56
2022/11/27 12:34:16;;;;;;;48.50;7.68;;;14.20;99.90;;;;;;5072126;28;20180;-56
2022/11/27 12:37:13;;;;;;;48.60;6.85;;;14.20;99.90;;;;;;5071990;28;20169;-55
2022/11/27 12:40:22;;;;;;;54.83;7.80;;;14.20;99.90;;;;;;5072052;28;20173;-56
2022/11/27 12:43:21;;;;;;;51.42;7.63;;;14.10;99.90;;;;;;5057636;28;20319;-56
2022/11/27 12:45:58;;;;;;;43.97;7.30;;;14.10;99.90;;;;;;5071884;28;20173;-56
2022/11/27 12:48:32;;;;;;;51.97;7.15;;;14.20;99.90;;;;;;5071704;28;20220;-56
2022/11/27 12:51:06;;;;;;;66.15;7.82;;;13.90;99.90;;;;;;5071777;28;20676;-56
2022/11/27 12:53:48;;;;;;;52.97;6.27;;;13.70;99.90;;;;;;5071689;28;20188;-56
2022/11/27 12:56:32;;;;;;;36.45;5.80;;;13.70;99.90;;;;;;5071676;28;20164;-56
2022/11/27 12:59:14;;;;;;;55.42;7.28;;;13.80;99.90;;;;;;5071537;28;20191;-56
2022/11/27 13:01:45;;;;;;;51.92;7.30;;;13.90;99.90;;;;;;5071465;28;20604;-56
2022/11/27 13:04:34;;;;;;;49.85;8.20;;;13.80;99.90;;;;;;5071495;28;20180;-56
2022/11/27 13:07:10;;;;;;;49.50;7.88;;;13.90;99.90;;;;;;5071521;28;20165;-57